Time;durP1;ratioP1;P1;durP2;ratioP2;P2;SDS_P1;SDS_P2;PMS_P1;PMS_P2;Temp;Humidity;BMP_temperature;BMP_pressure;BME280_temperature;BME280_humidity;BME280_pressure;Samples;Min_cycle;Max_cycle;Signal;HPM_P1;HPM_P2
2021/07/18 00:02:06;;;;;;;9.50;5.30;;;;;;;;;;5019757;28;20053;-69
2021/07/18 00:04:32;;;;;;;7.38;4.80;;;;;;;;;;5010891;28;20052;-69
2021/07/18 00:06:59;;;;;;;8.85;4.90;;;;;;;;;;5035858;28;20088;-69
2021/07/18 00:09:25;;;;;;;9.95;5.18;;;;;;;;;;5029338;28;20044;-69
2021/07/18 00:11:51;;;;;;;8.40;4.63;;;;;;;;;;5035831;28;20258;-69
2021/07/18 00:14:18;;;;;;;8.43;5.47;;;;;;;;;;5027747;28;20053;-69
2021/07/18 00:16:44;;;;;;;9.15;6.40;;;;;;;;;;5033333;28;20073;-69
2021/07/18 00:19:10;;;;;;;9.73;5.22;;;;;;;;;;5028990;28;20482;-69
2021/07/18 00:21:36;;;;;;;9.75;6.10;;;;;;;;;;5036067;28;20442;-69
2021/07/18 00:24:03;;;;;;;7.60;5.28;;;;;;;;;;5030630;28;20049;-69
2021/07/18 00:26:29;;;;;;;12.63;6.10;;;;;;;;;;5039409;28;20545;-69
2021/07/18 00:28:55;;;;;;;7.88;5.75;;;;;;;;;;5035064;28;20112;-69
2021/07/18 00:31:22;;;;;;;9.30;5.85;;;;;;;;;;5030047;28;20049;-69
2021/07/18 00:33:48;;;;;;;10.07;5.90;;;;;;;;;;5034793;28;20120;-69
2021/07/18 00:36:14;;;;;;;8.35;6.15;;;;;;;;;;5028999;28;20038;-69
2021/07/18 00:38:40;;;;;;;11.15;6.05;;;;;;;;;;5037060;28;20037;-69
2021/07/18 00:41:06;;;;;;;8.18;6.63;;;;;;;;;;5030276;28;20037;-69
2021/07/18 00:43:33;;;;;;;13.73;7.57;;;;;;;;;;5037063;28;20045;-69
2021/07/18 00:46:00;;;;;;;12.88;6.78;;;;;;;;;;5029643;28;20071;-69
2021/07/18 00:48:27;;;;;;;9.00;6.63;;;;;;;;;;5036725;28;20492;-69
2021/07/18 00:50:53;;;;;;;7.75;5.70;;;;;;;;;;5030913;28;20401;-69
2021/07/18 00:53:19;;;;;;;8.82;5.55;;;;;;;;;;5036445;28;20073;-69
2021/07/18 00:55:46;;;;;;;10.18;5.93;;;;;;;;;;5033517;28;20079;-69
2021/07/18 00:58:15;;;;;;;8.15;6.25;;;;;;;;;;5040955;28;20046;-69
2021/07/18 01:00:41;;;;;;;10.93;6.68;;;;;;;;;;5030511;28;20044;-69
2021/07/18 01:03:08;;;;;;;9.10;6.10;;;;;;;;;;5036527;28;20041;-69
2021/07/18 01:05:34;;;;;;;9.88;6.35;;;;;;;;;;5032805;28;20568;-69
2021/07/18 01:08:01;;;;;;;10.20;6.03;;;;;;;;;;5030245;28;20152;-69
2021/07/18 01:10:27;;;;;;;13.35;6.80;;;;;;;;;;5039166;28;20056;-69
2021/07/18 01:12:54;;;;;;;8.43;6.65;;;;;;;;;;5027042;28;20057;-69
2021/07/18 01:15:20;;;;;;;10.07;6.82;;;;;;;;;;5036425;28;20123;-69
2021/07/18 01:17:47;;;;;;;16.05;7.88;;;;;;;;;;5029648;28;20148;-69
2021/07/18 01:20:13;;;;;;;12.63;8.30;;;;;;;;;;5035225;28;20041;-69
2021/07/18 01:22:40;;;;;;;13.07;7.10;;;;;;;;;;5030138;28;20041;-69
2021/07/18 01:25:07;;;;;;;15.13;7.60;;;;;;;;;;5037798;28;20052;-68
2021/07/18 01:27:34;;;;;;;10.02;7.25;;;;;;;;;;5032807;28;20044;-68
2021/07/18 01:30:01;;;;;;;10.40;6.80;;;;;;;;;;5034460;28;20447;-68
2021/07/18 01:32:27;;;;;;;11.73;7.30;;;;;;;;;;5027846;28;20068;-69
2021/07/18 01:34:53;;;;;;;15.77;7.90;;;;;;;;;;5037482;28;20041;-69
2021/07/18 01:37:19;;;;;;;13.20;7.30;;;;;;;;;;5032761;28;20038;-69
2021/07/18 01:39:47;;;;;;;8.75;7.28;;;;;;;;;;5033938;28;20045;-69
2021/07/18 01:42:13;;;;;;;8.38;6.85;;;;;;;;;;5026222;28;20537;-68
2021/07/18 01:44:39;;;;;;;8.90;6.78;;;;;;;;;;5030354;28;20409;-68
2021/07/18 01:47:05;;;;;;;10.38;7.05;;;;;;;;;;5028217;28;20370;-68
2021/07/18 01:49:31;;;;;;;10.35;6.82;;;;;;;;;;5034659;28;20049;-68
2021/07/18 01:51:58;;;;;;;10.50;6.53;;;;;;;;;;5035723;28;20045;-68
2021/07/18 01:54:24;;;;;;;7.13;6.38;;;;;;;;;;5031138;28;20148;-69
2021/07/18 01:56:50;;;;;;;12.80;7.47;;;;;;;;;;5032931;28;20115;-69
2021/07/18 01:59:18;;;;;;;13.65;7.30;;;;;;;;;;5028213;28;20047;-69
2021/07/18 02:01:44;;;;;;;9.10;7.50;;;;;;;;;;5035854;28;20041;-69
2021/07/18 02:04:14;;;;;;;14.50;7.30;;;;;;;;;;5028693;28;20073;-69
2021/07/18 02:06:40;;;;;;;15.07;7.50;;;;;;;;;;5034933;28;20068;-69
2021/07/18 02:09:07;;;;;;;12.10;7.68;;;;;;;;;;5027158;28;20389;-69
2021/07/18 02:11:33;;;;;;;10.60;8.27;;;;;;;;;;5039533;28;20044;-69
2021/07/18 02:14:00;;;;;;;10.00;8.50;;;;;;;;;;5027827;28;20092;-69
2021/07/18 02:16:29;;;;;;;13.25;8.57;;;;;;;;;;5034055;28;20041;-69
2021/07/18 02:18:56;;;;;;;37.45;8.95;;;;;;;;;;5025649;28;20065;-69
2021/07/18 02:21:22;;;;;;;63.38;9.48;;;;;;;;;;5032519;28;20044;-69
2021/07/18 02:23:49;;;;;;;19.92;9.52;;;;;;;;;;5025046;28;20149;-69
2021/07/18 02:26:15;;;;;;;36.50;10.38;;;;;;;;;;5033803;28;20125;-69
2021/07/18 02:28:42;;;;;;;26.40;9.40;;;;;;;;;;5032891;28;20045;-69
2021/07/18 02:31:09;;;;;;;19.50;9.10;;;;;;;;;;5037222;28;20064;-69
2021/07/18 02:33:36;;;;;;;10.07;8.63;;;;;;;;;;5020428;28;20434;-69
2021/07/18 02:36:03;;;;;;;10.45;8.43;;;;;;;;;;5029775;28;20037;-69
2021/07/18 02:38:29;;;;;;;8.48;7.68;;;;;;;;;;5033869;28;20039;-69
2021/07/18 02:40:56;;;;;;;12.07;7.80;;;;;;;;;;5028585;28;20287;-69
2021/07/18 02:43:22;;;;;;;17.23;8.73;;;;;;;;;;5038234;28;20492;-69
2021/07/18 02:45:48;;;;;;;11.15;8.38;;;;;;;;;;5029213;28;20045;-69
2021/07/18 02:48:14;;;;;;;10.93;8.18;;;;;;;;;;5030908;28;20041;-69
2021/07/18 02:50:40;;;;;;;8.70;7.88;;;;;;;;;;5032001;28;20030;-69
2021/07/18 02:53:07;;;;;;;8.40;7.60;;;;;;;;;;5033110;28;20042;-69
2021/07/18 02:55:33;;;;;;;8.85;7.95;;;;;;;;;;5027462;28;20048;-69
2021/07/18 02:57:59;;;;;;;8.77;7.97;;;;;;;;;;5032220;28;20400;-69
2021/07/18 03:00:26;;;;;;;19.05;9.95;;;;;;;;;;5033130;28;20044;-69
2021/07/18 03:02:52;;;;;;;9.82;8.35;;;;;;;;;;5037813;28;20079;-69
2021/07/18 03:05:19;;;;;;;9.00;8.10;;;;;;;;;;5029475;28;20088;-69
2021/07/18 03:07:46;;;;;;;11.23;8.98;;;;;;;;;;5035947;28;20052;-69
2021/07/18 03:10:17;;;;;;;10.05;8.48;;;;;;;;;;5037408;28;20041;-69
2021/07/18 03:12:44;;;;;;;10.52;8.55;;;;;;;;;;5036419;28;20252;-69
2021/07/18 03:15:11;;;;;;;10.52;9.45;;;;;;;;;;5035795;28;20591;-69
2021/07/18 03:17:37;;;;;;;11.02;8.95;;;;;;;;;;5030808;28;20096;-69
2021/07/18 03:20:08;;;;;;;11.05;9.32;;;;;;;;;;5035113;28;20029;-69
2021/07/18 03:22:34;;;;;;;11.93;9.60;;;;;;;;;;5036902;28;20040;-69
2021/07/18 03:25:00;;;;;;;16.02;9.82;;;;;;;;;;5039943;28;20037;-69
2021/07/18 03:27:26;;;;;;;13.50;10.75;;;;;;;;;;5031746;28;20041;-69
2021/07/18 03:29:53;;;;;;;17.52;11.00;;;;;;;;;;5036548;28;20131;-69
2021/07/18 03:32:19;;;;;;;24.88;12.00;;;;;;;;;;5036441;28;20116;-69
2021/07/18 03:34:47;;;;;;;45.13;12.88;;;;;;;;;;5038169;28;20118;-69
2021/07/18 03:37:13;;;;;;;29.00;11.93;;;;;;;;;;5029332;28;20037;-69
2021/07/18 03:39:39;;;;;;;16.40;12.45;;;;;;;;;;5037135;28;20430;-69
2021/07/18 03:42:06;;;;;;;36.80;12.35;;;;;;;;;;5033135;28;20116;-69
2021/07/18 03:44:32;;;;;;;39.90;12.57;;;;;;;;;;5036640;28;20136;-69
2021/07/18 03:46:59;;;;;;;20.48;12.68;;;;;;;;;;5026887;28;20034;-69
2021/07/18 03:49:25;;;;;;;42.13;12.85;;;;;;;;;;5037092;28;20751;-69
2021/07/18 03:51:51;;;;;;;68.78;15.38;;;;;;;;;;5031890;28;20041;-69
2021/07/18 03:54:17;;;;;;;54.67;14.25;;;;;;;;;;5035049;28;20090;-69
2021/07/18 03:56:44;;;;;;;33.10;14.07;;;;;;;;;;5043505;28;20041;-69
2021/07/18 03:59:10;;;;;;;26.98;13.10;;;;;;;;;;5028919;28;20037;-69
2021/07/18 04:01:36;;;;;;;36.08;12.85;;;;;;;;;;5041183;28;20126;-69
2021/07/18 04:04:02;;;;;;;64.97;14.57;;;;;;;;;;5032424;28;20140;-69
2021/07/18 04:06:28;;;;;;;26.40;12.27;;;;;;;;;;5020357;28;20037;-69
2021/07/18 04:08:54;;;;;;;20.25;11.45;;;;;;;;;;5026978;28;20037;-69
2021/07/18 04:11:21;;;;;;;26.13;12.63;;;;;;;;;;5039681;28;20030;-69
2021/07/18 04:13:47;;;;;;;25.02;12.15;;;;;;;;;;5029349;28;20088;-69
2021/07/18 04:16:13;;;;;;;29.80;11.70;;;;;;;;;;5033991;28;20033;-69
2021/07/18 04:18:39;;;;;;;20.15;11.38;;;;;;;;;;5033702;28;20045;-69
2021/07/18 04:21:05;;;;;;;26.52;12.00;;;;;;;;;;5035992;28;20504;-69
2021/07/18 04:23:32;;;;;;;12.88;11.07;;;;;;;;;;5031692;28;20045;-69
2021/07/18 04:25:58;;;;;;;17.17;11.15;;;;;;;;;;5035992;28;20112;-69
2021/07/18 04:28:24;;;;;;;13.65;10.10;;;;;;;;;;5031620;28;20040;-69
2021/07/18 04:30:50;;;;;;;13.90;10.60;;;;;;;;;;5040256;28;20041;-69
2021/07/18 04:33:16;;;;;;;16.13;9.93;;;;;;;;;;5034327;28;20508;-69
2021/07/18 04:35:43;;;;;;;32.50;10.45;;;;;;;;;;5033169;28;20037;-69
2021/07/18 04:38:09;;;;;;;19.88;9.63;;;;;;;;;;5039479;28;20073;-69
2021/07/18 04:40:36;;;;;;;10.80;9.07;;;;;;;;;;5030586;28;20041;-69
2021/07/18 04:43:02;;;;;;;16.20;9.48;;;;;;;;;;5038455;28;20439;-69
2021/07/18 04:45:28;;;;;;;19.10;8.77;;;;;;;;;;5032156;28;20132;-69
2021/07/18 04:47:56;;;;;;;12.55;8.77;;;;;;;;;;5033366;28;20071;-69
2021/07/18 04:50:23;;;;;;;9.20;8.23;;;;;;;;;;5030731;28;20045;-69
2021/07/18 04:52:49;;;;;;;10.15;9.10;;;;;;;;;;5036713;28;20497;-69
2021/07/18 04:55:16;;;;;;;12.38;8.80;;;;;;;;;;5030080;28;20029;-69
2021/07/18 04:57:42;;;;;;;11.38;8.05;;;;;;;;;;5032724;28;20486;-69
2021/07/18 05:00:15;;;;;;;9.27;8.27;;;;;;;;;;5031849;28;20041;-69
2021/07/18 05:02:42;;;;;;;9.98;7.90;;;;;;;;;;5038636;28;20132;-69
2021/07/18 05:05:08;;;;;;;8.48;7.68;;;;;;;;;;5025120;28;20087;-69
2021/07/18 05:07:44;;;;;;;8.82;7.90;;;;;;;;;;5040056;28;20048;-69
2021/07/18 05:10:10;;;;;;;9.63;8.68;;;;;;;;;;5014975;28;20406;-69
2021/07/18 05:12:36;;;;;;;9.38;8.48;;;;;;;;;;5038435;28;20025;-69
2021/07/18 05:15:03;;;;;;;7.47;6.78;;;;;;;;;;5031303;28;20053;-69
2021/07/18 05:17:29;;;;;;;9.52;7.90;;;;;;;;;;5033913;28;20056;-69
2021/07/18 05:19:55;;;;;;;8.73;7.93;;;;;;;;;;5037970;28;20040;-69
2021/07/18 05:22:21;;;;;;;7.88;7.18;;;;;;;;;;5031250;28;20455;-69
2021/07/18 05:24:48;;;;;;;7.95;7.15;;;;;;;;;;5036330;28;20084;-69
2021/07/18 05:27:14;;;;;;;11.30;7.57;;;;;;;;;;5025183;28;20052;-69
2021/07/18 05:29:40;;;;;;;9.40;7.35;;;;;;;;;;5036055;28;20047;-69
2021/07/18 05:32:06;;;;;;;8.32;7.32;;;;;;;;;;5026139;28;20460;-70
2021/07/18 05:34:32;;;;;;;7.22;6.57;;;;;;;;;;5039466;28;20069;-70
2021/07/18 05:36:59;;;;;;;7.55;6.85;;;;;;;;;;5029528;28;20095;-70
2021/07/18 05:39:25;;;;;;;7.35;6.75;;;;;;;;;;5035012;28;20037;-69
2021/07/18 05:41:51;;;;;;;7.32;6.63;;;;;;;;;;5027466;28;20160;-69
2021/07/18 05:44:18;;;;;;;7.88;7.13;;;;;;;;;;5034911;28;20041;-69
2021/07/18 05:46:44;;;;;;;8.00;7.07;;;;;;;;;;5033887;28;20055;-69
2021/07/18 05:49:10;;;;;;;10.70;7.18;;;;;;;;;;5040431;28;20036;-69
2021/07/18 05:51:36;;;;;;;9.43;7.35;;;;;;;;;;5015213;28;20056;-69
2021/07/18 05:54:02;;;;;;;8.52;7.40;;;;;;;;;;5032838;28;20041;-69
2021/07/18 05:56:28;;;;;;;8.23;7.25;;;;;;;;;;5037810;28;20116;-69
2021/07/18 05:58:55;;;;;;;9.23;7.75;;;;;;;;;;5026837;28;20041;-69
2021/07/18 06:01:21;;;;;;;7.88;7.13;;;;;;;;;;5036498;28;20061;-70
2021/07/18 06:03:47;;;;;;;8.30;6.80;;;;;;;;;;5027485;28;20120;-70
2021/07/18 06:06:13;;;;;;;12.25;7.97;;;;;;;;;;5037653;28;20033;-70
2021/07/18 06:08:39;;;;;;;8.32;7.35;;;;;;;;;;5027066;28;20068;-70
2021/07/18 06:11:05;;;;;;;10.25;7.28;;;;;;;;;;5036461;28;20048;-70
2021/07/18 06:13:31;;;;;;;11.30;8.07;;;;;;;;;;5026905;28;20469;-70
2021/07/18 06:15:58;;;;;;;9.48;8.15;;;;;;;;;;5034763;28;20061;-70
2021/07/18 06:18:24;;;;;;;11.45;8.50;;;;;;;;;;5032105;28;20148;-70
2021/07/18 06:20:50;;;;;;;9.60;8.60;;;;;;;;;;5036625;28;20499;-70
2021/07/18 06:23:16;;;;;;;10.45;8.00;;;;;;;;;;5027493;28;20036;-70
2021/07/18 06:25:42;;;;;;;9.13;7.57;;;;;;;;;;5037976;28;20048;-70
2021/07/18 06:28:09;;;;;;;8.27;7.47;;;;;;;;;;5033130;28;20047;-70
2021/07/18 06:30:35;;;;;;;9.13;8.25;;;;;;;;;;5033692;28;20346;-70
2021/07/18 06:33:03;;;;;;;8.00;6.90;;;;;;;;;;5030465;28;20036;-71
2021/07/18 06:35:29;;;;;;;9.35;7.75;;;;;;;;;;5011353;28;20037;-71
2021/07/18 06:37:57;;;;;;;8.65;7.00;;;;;;;;;;5036942;28;20066;-71
2021/07/18 06:40:23;;;;;;;11.43;7.75;;;;;;;;;;5003913;28;20040;-71
2021/07/18 06:42:49;;;;;;;8.55;7.13;;;;;;;;;;5035913;28;20108;-71
2021/07/18 06:45:15;;;;;;;12.02;8.18;;;;;;;;;;5025936;28;20116;-71
2021/07/18 06:47:41;;;;;;;10.27;7.40;;;;;;;;;;5037492;28;20068;-71
2021/07/18 06:50:08;;;;;;;9.07;7.25;;;;;;;;;;5038244;28;20131;-71
2021/07/18 06:52:34;;;;;;;8.35;6.45;;;;;;;;;;5038156;28;20477;-71
2021/07/18 06:55:00;;;;;;;7.80;6.75;;;;;;;;;;5034832;28;20479;-71
2021/07/18 06:57:27;;;;;;;9.70;6.57;;;;;;;;;;5033578;28;20033;-71
2021/07/18 06:59:53;;;;;;;6.97;6.00;;;;;;;;;;5030241;28;20052;-71
2021/07/18 07:02:19;;;;;;;11.98;6.60;;;;;;;;;;5036545;28;20048;-71
2021/07/18 07:04:45;;;;;;;8.63;6.05;;;;;;;;;;5029397;28;20113;-71
2021/07/18 07:07:12;;;;;;;12.55;6.40;;;;;;;;;;5038558;28;20043;-71
2021/07/18 07:09:38;;;;;;;8.00;5.68;;;;;;;;;;5028863;28;20072;-71
2021/07/18 07:12:05;;;;;;;6.75;5.65;;;;;;;;;;5030085;28;20055;-71
2021/07/18 07:14:31;;;;;;;11.63;6.28;;;;;;;;;;5033317;28;20076;-71
2021/07/18 07:16:57;;;;;;;6.65;5.53;;;;;;;;;;5023903;28;20080;-71
2021/07/18 07:19:23;;;;;;;8.18;5.57;;;;;;;;;;5038946;28;20048;-71
2021/07/18 07:21:49;;;;;;;10.90;5.80;;;;;;;;;;5028831;28;20045;-71
2021/07/18 07:24:16;;;;;;;10.23;6.00;;;;;;;;;;5036628;28;20041;-71
2021/07/18 07:26:42;;;;;;;7.00;5.07;;;;;;;;;;5031408;28;20102;-72
2021/07/18 07:29:10;;;;;;;8.52;5.22;;;;;;;;;;5033166;28;20026;-72
2021/07/18 07:31:36;;;;;;;9.25;5.18;;;;;;;;;;5024962;28;20072;-72
2021/07/18 07:34:02;;;;;;;7.07;4.97;;;;;;;;;;5034174;28;20041;-72
2021/07/18 07:36:29;;;;;;;5.65;4.63;;;;;;;;;;5026286;28;20036;-72
2021/07/18 07:38:55;;;;;;;8.35;4.70;;;;;;;;;;5032324;28;20409;-72
2021/07/18 07:41:23;;;;;;;7.53;4.13;;;;;;;;;;5031358;28;20402;-72
2021/07/18 07:43:53;;;;;;;6.72;3.85;;;;;;;;;;5033904;28;20041;-70
2021/07/18 07:46:19;;;;;;;4.85;3.53;;;;;;;;;;5031610;28;20508;-70
2021/07/18 07:48:45;;;;;;;5.55;3.72;;;;;;;;;;5034523;28;20128;-70
2021/07/18 07:51:11;;;;;;;6.07;3.40;;;;;;;;;;5030700;28;20033;-70
2021/07/18 07:53:38;;;;;;;6.22;3.50;;;;;;;;;;5042836;28;20037;-71
2021/07/18 07:56:04;;;;;;;7.88;3.85;;;;;;;;;;5037306;28;20037;-71
2021/07/18 07:58:30;;;;;;;6.85;3.65;;;;;;;;;;5015714;28;20111;-71
2021/07/18 08:00:57;;;;;;;5.20;3.53;;;;;;;;;;5035340;28;20452;-71
2021/07/18 08:03:23;;;;;;;5.53;3.42;;;;;;;;;;5029164;28;20136;-71
2021/07/18 08:05:50;;;;;;;6.35;3.67;;;;;;;;;;5042928;28;20037;-71
2021/07/18 08:08:17;;;;;;;5.72;3.10;;;;;;;;;;5031363;28;20029;-71
2021/07/18 08:10:43;;;;;;;4.97;2.60;;;;;;;;;;5034630;28;20034;-71
2021/07/18 08:13:09;;;;;;;5.95;2.88;;;;;;;;;;5029657;28;20067;-71
2021/07/18 08:15:36;;;;;;;8.05;3.60;;;;;;;;;;5015360;28;20421;-71
2021/07/18 08:18:03;;;;;;;8.20;3.05;;;;;;;;;;5034688;28;20045;-72
2021/07/18 08:20:35;;;;;;;5.03;2.90;;;;;;;;;;5020879;28;20029;-72
2021/07/18 08:23:04;;;;;;;5.50;2.88;;;;;;;;;;5032563;28;20365;-72
2021/07/18 08:25:37;;;;;;;5.07;2.90;;;;;;;;;;5036623;28;20061;-72
2021/07/18 08:28:04;;;;;;;4.63;2.95;;;;;;;;;;5019816;28;20060;-72
2021/07/18 08:30:37;;;;;;;5.95;2.65;;;;;;;;;;5039395;28;20029;-72
2021/07/18 08:33:03;;;;;;;6.25;2.83;;;;;;;;;;5030194;28;20048;-73
2021/07/18 08:35:29;;;;;;;4.07;2.80;;;;;;;;;;5046621;28;20052;-73
2021/07/18 08:38:05;;;;;;;6.40;2.47;;;;;;;;;;5035846;28;20041;-73
2021/07/18 08:40:37;;;;;;;3.78;2.13;;;;;;;;;;5035493;28;20401;-73
2021/07/18 08:43:04;;;;;;;6.53;2.50;;;;;;;;;;5035679;28;20037;-73
2021/07/18 08:45:30;;;;;;;4.72;2.22;;;;;;;;;;5033260;28;20040;-73
2021/07/18 08:47:56;;;;;;;4.82;2.15;;;;;;;;;;5037978;28;20128;-73
2021/07/18 08:50:23;;;;;;;2.78;2.00;;;;;;;;;;5032490;28;20108;-73
2021/07/18 08:52:56;;;;;;;3.17;1.88;;;;;;;;;;5025423;28;20053;-73
2021/07/18 08:55:23;;;;;;;3.30;1.60;;;;;;;;;;5034218;28;20045;-73
2021/07/18 08:57:51;;;;;;;2.65;1.67;;;;;;;;;;5035801;28;20528;-73
2021/07/18 09:00:17;;;;;;;4.68;1.80;;;;;;;;;;5028159;28;20029;-73
2021/07/18 09:02:43;;;;;;;3.03;1.48;;;;;;;;;;5034338;28;20064;-73
2021/07/18 09:05:10;;;;;;;2.60;1.08;;;;;;;;;;5032429;28;20086;-73
2021/07/18 09:07:43;;;;;;;2.38;1.10;;;;;;;;;;5034658;28;20504;-73
2021/07/18 09:10:10;;;;;;;2.60;1.30;;;;;;;;;;5029528;28;20079;-73
2021/07/18 09:12:36;;;;;;;4.55;1.40;;;;;;;;;;5042549;28;20109;-73
2021/07/18 09:15:02;;;;;;;2.10;1.35;;;;;;;;;;5037511;28;20135;-73
2021/07/18 09:17:33;;;;;;;3.60;1.38;;;;;;;;;;5036628;28;20044;-73
2021/07/18 09:20:11;;;;;;;1.77;1.00;;;;;;;;;;5035849;28;20087;-73
2021/07/18 09:22:37;;;;;;;2.67;0.93;;;;;;;;;;5016310;28;20405;-73
2021/07/18 09:25:04;;;;;;;3.40;1.05;;;;;;;;;;5029964;28;20041;-73
2021/07/18 09:27:31;;;;;;;4.80;1.00;;;;;;;;;;5036946;28;20040;-73
2021/07/18 09:30:04;;;;;;;3.00;1.00;;;;;;;;;;5032827;28;20064;-73
2021/07/18 09:32:31;;;;;;;3.23;1.00;;;;;;;;;;5039923;28;20069;-73
2021/07/18 09:35:05;;;;;;;2.28;0.80;;;;;;;;;;5035042;28;20771;-73
2021/07/18 09:37:32;;;;;;;1.98;0.88;;;;;;;;;;5030597;28;20030;-73
2021/07/18 09:40:03;;;;;;;2.92;1.00;;;;;;;;;;5033183;28;20465;-73
2021/07/18 09:42:42;;;;;;;2.50;1.50;;;;;;;;;;5024493;28;20049;-73
2021/07/18 09:45:12;;;;;;;4.25;1.17;;;;;;;;;;5036178;28;20382;-73
2021/07/18 09:47:58;;;;;;;2.92;0.90;;;;;;;;;;5028961;28;20068;-73
2021/07/18 09:50:29;;;;;;;3.72;1.10;;;;;;;;;;5035729;28;20309;-73
2021/07/18 09:53:04;;;;;;;2.28;0.95;;;;;;;;;;5033199;28;20041;-73
2021/07/18 09:55:31;;;;;;;2.85;1.08;;;;;;;;;;5036061;28;20115;-73
2021/07/18 09:57:57;;;;;;;1.33;0.80;;;;;;;;;;5030689;28;20493;-74
2021/07/18 10:00:35;;;;;;;3.55;0.95;;;;;;;;;;5039644;28;20039;-73
2021/07/18 10:03:09;;;;;;;1.80;0.95;;;;;;;;;;5024366;28;20040;-73
2021/07/18 10:05:36;;;;;;;1.85;0.75;;;;;;;;;;5034919;28;20047;-73
2021/07/18 10:08:06;;;;;;;2.33;0.65;;;;;;;;;;5031292;28;20115;-73
2021/07/18 10:10:32;;;;;;;3.25;1.00;;;;;;;;;;5035561;28;20037;-73
2021/07/18 10:12:59;;;;;;;3.55;0.70;;;;;;;;;;5012965;28;20056;-73
2021/07/18 10:15:25;;;;;;;2.03;0.90;;;;;;;;;;5036049;28;20057;-73
2021/07/18 10:17:51;;;;;;;2.22;0.80;;;;;;;;;;5032172;28;20045;-73
2021/07/18 10:20:18;;;;;;;2.72;0.73;;;;;;;;;;5040692;28;20473;-75
2021/07/18 10:22:44;;;;;;;2.25;0.60;;;;;;;;;;5028598;28;20537;-74
2021/07/18 10:25:15;;;;;;;4.15;0.95;;;;;;;;;;5038616;28;20044;-74
2021/07/18 10:27:42;;;;;;;2.10;0.55;;;;;;;;;;5026691;28;20350;-74
2021/07/18 10:30:09;;;;;;;2.40;0.50;;;;;;;;;;5018451;28;20121;-75
2021/07/18 10:32:35;;;;;;;1.83;0.57;;;;;;;;;;5031009;28;20131;-74
2021/07/18 10:35:01;;;;;;;2.97;0.88;;;;;;;;;;5031565;28;20052;-73
2021/07/18 10:37:38;;;;;;;1.60;0.75;;;;;;;;;;5035120;28;20037;-73
2021/07/18 10:40:10;;;;;;;1.65;0.63;;;;;;;;;;5034820;28;20041;-73
2021/07/18 10:42:37;;;;;;;2.22;0.88;;;;;;;;;;5031438;28;20430;-74
2021/07/18 10:45:32;;;;;;;1.83;0.82;;;;;;;;;;5026565;28;20191;-73
2021/07/18 10:48:03;;;;;;;463.73;29.08;;;;;;;;;;5020736;28;20111;-71
2021/07/18 10:50:42;;;;;;;48.22;4.50;;;;;;;;;;5040691;28;20037;-70
2021/07/18 10:53:18;;;;;;;3.80;1.23;;;;;;;;;;5032250;28;20048;-74
2021/07/18 10:55:44;;;;;;;2.35;0.75;;;;;;;;;;5033789;28;20543;-71
2021/07/18 10:58:10;;;;;;;2.47;0.82;;;;;;;;;;5029485;28;20531;-72
2021/07/18 11:00:48;;;;;;;19.17;2.65;;;;;;;;;;5026890;28;20037;-72
2021/07/18 11:03:14;;;;;;;1.73;0.70;;;;;;;;;;5036319;28;20124;-72
2021/07/18 11:05:50;;;;;;;3.35;0.75;;;;;;;;;;5029707;28;20116;-67
2021/07/18 11:08:16;;;;;;;1.92;0.68;;;;;;;;;;5032426;28;20041;-67
2021/07/18 11:10:47;;;;;;;3.30;0.80;;;;;;;;;;5028115;28;20441;-67
2021/07/18 11:13:13;;;;;;;3.38;0.80;;;;;;;;;;5034835;28;20473;-66
2021/07/18 11:15:40;;;;;;;3.45;0.98;;;;;;;;;;5013499;28;20417;-67
2021/07/18 11:18:06;;;;;;;1.60;0.85;;;;;;;;;;5032456;28;20211;-68
2021/07/18 11:20:38;;;;;;;1.92;0.80;;;;;;;;;;5031360;28;20447;-68
2021/07/18 11:23:05;;;;;;;6.88;6.18;;;;;;;;;;5029002;28;20414;-68
2021/07/18 11:25:40;;;;;;;2.90;0.80;;;;;;;;;;5030488;28;20447;-68
2021/07/18 11:28:25;;;;;;;25.63;1.83;;;;;;;;;;5036442;28;20144;-67
2021/07/18 11:30:51;;;;;;;1.83;0.60;;;;;;;;;;5038932;28;20041;-67
2021/07/18 11:33:27;;;;;;;3.00;0.70;;;;;;;;;;5038491;28;20055;-68
2021/07/18 11:35:54;;;;;;;1.55;0.60;;;;;;;;;;5029409;28;20037;-68
2021/07/18 11:38:20;;;;;;;1.05;0.70;;;;;;;;;;5034559;28;20047;-69
2021/07/18 11:40:47;;;;;;;3.70;0.80;;;;;;;;;;5030052;28;20044;-69
2021/07/18 11:43:13;;;;;;;2.00;0.70;;;;;;;;;;5037250;28;20547;-69
2021/07/18 11:45:40;;;;;;;1.08;0.47;;;;;;;;;;5031232;28;20045;-69
2021/07/18 11:48:06;;;;;;;2.42;0.68;;;;;;;;;;5035854;28;20091;-69
2021/07/18 11:50:32;;;;;;;3.00;0.70;;;;;;;;;;5027929;28;20041;-69
2021/07/18 11:52:59;;;;;;;2.17;0.70;;;;;;;;;;5036079;28;20061;-69
2021/07/18 11:55:26;;;;;;;1.63;0.70;;;;;;;;;;5036254;28;20122;-70
2021/07/18 11:57:55;;;;;;;1.20;0.60;;;;;;;;;;5028807;28;20818;-70
2021/07/18 12:00:21;;;;;;;2.50;0.68;;;;;;;;;;5036655;28;20513;-69
2021/07/18 12:02:50;;;;;;;2.33;0.70;;;;;;;;;;5029729;28;20504;-68
2021/07/18 12:05:16;;;;;;;1.65;0.82;;;;;;;;;;5034031;28;20057;-68
2021/07/18 12:07:42;;;;;;;3.42;0.77;;;;;;;;;;5030331;28;20087;-68
2021/07/18 12:10:19;;;;;;;3.33;0.60;;;;;;;;;;5033660;28;20042;-69
2021/07/18 12:12:50;;;;;;;2.42;0.90;;;;;;;;;;5029833;28;20045;-69
2021/07/18 12:15:16;;;;;;;4.15;1.00;;;;;;;;;;5038078;28;20505;-69
2021/07/18 12:17:42;;;;;;;1.85;0.90;;;;;;;;;;5030118;28;20042;-68
2021/07/18 12:20:09;;;;;;;2.50;0.80;;;;;;;;;;5031605;28;20050;-68
2021/07/18 12:22:35;;;;;;;2.95;0.90;;;;;;;;;;5033334;28;20508;-70
2021/07/18 12:25:01;;;;;;;2.47;1.00;;;;;;;;;;5034647;28;21030;-70
2021/07/18 12:27:28;;;;;;;6.07;1.08;;;;;;;;;;5033732;28;20037;-70
2021/07/18 12:29:56;;;;;;;2.42;1.10;;;;;;;;;;5036729;28;20524;-71
2021/07/18 12:32:26;;;;;;;2.13;0.82;;;;;;;;;;5031080;28;20496;-70
2021/07/18 12:34:53;;;;;;;3.28;0.90;;;;;;;;;;5039870;28;20041;-70
2021/07/18 12:37:20;;;;;;;3.17;0.95;;;;;;;;;;5035325;28;20063;-70
2021/07/18 12:39:50;;;;;;;1.48;0.70;;;;;;;;;;5034274;28;20235;-70
2021/07/18 12:42:19;;;;;;;2.78;1.33;;;;;;;;;;5034951;28;20036;-70
2021/07/18 12:44:47;;;;;;;2.35;0.90;;;;;;;;;;5031918;28;20435;-70
2021/07/18 12:47:18;;;;;;;2.65;1.08;;;;;;;;;;5039328;28;20087;-70
2021/07/18 12:49:44;;;;;;;2.08;1.00;;;;;;;;;;5028104;28;20497;-70
2021/07/18 12:52:10;;;;;;;3.25;1.08;;;;;;;;;;5034101;28;20493;-70
2021/07/18 12:54:38;;;;;;;5.72;1.10;;;;;;;;;;5040800;28;20555;-69
2021/07/18 12:57:05;;;;;;;3.03;0.88;;;;;;;;;;5036606;28;20505;-70
2021/07/18 12:59:31;;;;;;;4.00;1.10;;;;;;;;;;5014492;28;20033;-70
2021/07/18 13:02:13;;;;;;;2.35;1.05;;;;;;;;;;5044202;28;20048;-70
2021/07/18 13:04:40;;;;;;;2.70;1.02;;;;;;;;;;5028192;28;20099;-70
2021/07/18 13:07:10;;;;;;;4.22;1.00;;;;;;;;;;5037261;28;20052;-70
2021/07/18 13:09:36;;;;;;;1.90;1.10;;;;;;;;;;5025904;28;20033;-70
2021/07/18 13:12:02;;;;;;;3.80;1.42;;;;;;;;;;5035758;28;20458;-70
2021/07/18 13:14:33;;;;;;;2.95;0.90;;;;;;;;;;5027345;28;20525;-69
2021/07/18 13:17:03;;;;;;;3.70;1.15;;;;;;;;;;5038811;28;20033;-70
2021/07/18 13:19:30;;;;;;;5.32;1.20;;;;;;;;;;5032757;28;20049;-70
2021/07/18 13:22:00;;;;;;;3.33;1.13;;;;;;;;;;5038928;28;20038;-70
2021/07/18 13:24:42;;;;;;;2.88;0.98;;;;;;;;;;5029312;28;20045;-70
2021/07/18 13:27:21;;;;;;;2.42;1.27;;;;;;;;;;5036881;28;20160;-70
2021/07/18 13:29:52;;;;;;;2.90;1.55;;;;;;;;;;5028258;28;20532;-70
2021/07/18 13:32:20;;;;;;;4.63;1.42;;;;;;;;;;5037250;28;20048;-70
2021/07/18 13:35:12;;;;;;;3.10;1.00;;;;;;;;;;5029723;28;20400;-70
2021/07/18 13:37:47;;;;;;;6.40;1.23;;;;;;;;;;5040233;28;20049;-69
2021/07/18 13:40:33;;;;;;;2.15;0.90;;;;;;;;;;5031916;28;20434;-66
2021/07/18 13:43:16;;;;;;;4.13;1.30;;;;;;;;;;5035124;28;20080;-66
2021/07/18 13:45:45;;;;;;;4.93;1.52;;;;;;;;;;5031225;28;20064;-65
2021/07/18 13:48:14;;;;;;;4.15;1.20;;;;;;;;;;5034646;28;20354;-65
2021/07/18 13:50:41;;;;;;;3.50;1.45;;;;;;;;;;5031188;28;20038;-67
2021/07/18 13:53:08;;;;;;;3.17;1.15;;;;;;;;;;5032388;28;20047;-65
2021/07/18 13:55:34;;;;;;;4.53;1.42;;;;;;;;;;5025411;28;21022;-66
2021/07/18 13:58:01;;;;;;;7.25;1.67;;;;;;;;;;5037400;28;20033;-66
2021/07/18 14:00:27;;;;;;;6.35;1.30;;;;;;;;;;5028271;28;20045;-66
2021/07/18 14:02:54;;;;;;;3.88;1.30;;;;;;;;;;5031824;28;20041;-67
2021/07/18 14:05:20;;;;;;;3.65;1.30;;;;;;;;;;5030001;28;20526;-65
2021/07/18 14:07:46;;;;;;;5.72;1.73;;;;;;;;;;5026176;28;20049;-65
2021/07/18 14:10:12;;;;;;;3.85;1.80;;;;;;;;;;5039409;28;20524;-65
2021/07/18 14:12:39;;;;;;;6.88;2.17;;;;;;;;;;5028490;28;20046;-65
2021/07/18 14:15:07;;;;;;;4.95;1.75;;;;;;;;;;5031887;28;20057;-65
2021/07/18 14:17:33;;;;;;;4.45;1.70;;;;;;;;;;5027095;28;20057;-64
2021/07/18 14:19:59;;;;;;;5.57;1.90;;;;;;;;;;5033369;28;20403;-65
2021/07/18 14:22:25;;;;;;;6.18;1.67;;;;;;;;;;5026215;28;20041;-65
2021/07/18 14:24:52;;;;;;;5.22;1.77;;;;;;;;;;5032646;28;20037;-65
2021/07/18 14:27:18;;;;;;;8.70;1.98;;;;;;;;;;5027497;28;20107;-65
2021/07/18 14:29:44;;;;;;;4.10;1.70;;;;;;;;;;5030935;28;20048;-65
2021/07/18 14:32:10;;;;;;;5.60;1.52;;;;;;;;;;5029016;28;20040;-67
2021/07/18 14:34:36;;;;;;;4.20;1.77;;;;;;;;;;5034220;28;20446;-67
2021/07/18 14:37:02;;;;;;;6.75;1.85;;;;;;;;;;5027976;28;20041;-67
2021/07/18 14:39:28;;;;;;;8.23;1.85;;;;;;;;;;5036657;28;20486;-67
2021/07/18 14:41:55;;;;;;;5.45;1.73;;;;;;;;;;5036381;28;20405;-66